Time;durP1;ratioP1;P1;durP2;ratioP2;P2;SDS_P1;SDS_P2;PMS_P1;PMS_P2;Temp;Humidity;BMP_temperature;BMP_pressure;BME280_temperature;BME280_humidity;BME280_pressure;Samples;Min_cycle;Max_cycle;Signal;HPM_P1;HPM_P2
2022/02/19 00:01:06;;;;;;;3.33;0.80;;;5.50;99.90;;;;;;5027809;28;20026;-73
2022/02/19 00:03:41;;;;;;;6.03;1.58;;;5.40;99.90;;;;;;5035092;28;20075;-75
2022/02/19 00:06:07;;;;;;;10.82;0.90;;;5.30;99.90;;;;;;5027849;28;20038;-74
2022/02/19 00:08:33;;;;;;;2.17;1.05;;;5.30;99.90;;;;;;5029696;28;20065;-71
2022/02/19 00:11:08;;;;;;;11.40;0.85;;;5.20;99.90;;;;;;5027564;28;20026;-78
2022/02/19 00:13:34;;;;;;;3.55;1.35;;;5.20;99.90;;;;;;5027229;28;20131;-74
2022/02/19 00:16:05;;;;;;;8.32;1.17;;;5.10;99.90;;;;;;5027332;28;20567;-72
2022/02/19 00:18:31;;;;;;;4.15;0.50;;;5.20;99.90;;;;;;5026966;28;20025;-73
2022/02/19 00:20:57;;;;;;;3.75;1.40;;;5.20;99.90;;;;;;5027143;28;20026;-71
2022/02/19 00:23:26;;;;;;;4.45;0.98;;;5.10;99.90;;;;;;5027355;28;20037;-72
2022/02/19 00:25:51;;;;;;;12.23;0.80;;;5.10;99.90;;;;;;5034528;28;20069;-70
2022/02/19 00:28:17;;;;;;;8.88;1.83;;;5.10;99.90;;;;;;5028074;28;20026;-71
2022/02/19 00:30:43;;;;;;;4.15;1.05;;;5.10;99.90;;;;;;5027143;28;20034;-73
2022/02/19 00:33:09;;;;;;;5.68;1.98;;;5.10;99.90;;;;;;5030687;28;20397;-74
2022/02/19 00:35:34;;;;;;;19.70;1.25;;;5.10;99.90;;;;;;5045828;28;20030;-73
2022/02/19 00:38:00;;;;;;;8.48;1.27;;;5.10;99.90;;;;;;5045753;28;20033;-74
2022/02/19 00:40:26;;;;;;;9.43;1.67;;;5.10;99.90;;;;;;5041440;28;20482;-72
2022/02/19 00:42:52;;;;;;;2.47;0.65;;;5.00;99.90;;;;;;5046400;28;20033;-76
2022/02/19 00:45:19;;;;;;;2.72;0.55;;;5.00;99.90;;;;;;5044286;28;20109;-75
2022/02/19 00:47:44;;;;;;;9.18;1.98;;;5.00;99.90;;;;;;5037182;28;20034;-75
2022/02/19 00:50:10;;;;;;;2.20;0.57;;;4.90;99.90;;;;;;5027086;28;20065;-75
2022/02/19 00:52:40;;;;;;;6.70;0.75;;;4.90;99.90;;;;;;5026843;28;20083;-76
2022/02/19 00:55:06;;;;;;;1.42;0.25;;;4.80;99.90;;;;;;5025126;28;20072;-72
2022/02/19 00:57:32;;;;;;;6.57;1.00;;;4.80;99.90;;;;;;5026392;28;20025;-73
2022/02/19 00:59:58;;;;;;;12.30;2.00;;;4.80;99.90;;;;;;5027570;28;20075;-72
2022/02/19 01:02:23;;;;;;;3.90;0.85;;;4.90;99.90;;;;;;5032844;28;20416;-75
2022/02/19 01:04:49;;;;;;;0.80;0.43;;;4.80;99.90;;;;;;5046538;28;20028;-75
2022/02/19 01:07:15;;;;;;;6.85;1.48;;;4.90;99.90;;;;;;5027607;28;20072;-76
2022/02/19 01:09:40;;;;;;;10.10;1.00;;;4.90;99.90;;;;;;5026713;28;20038;-74
2022/02/19 01:12:06;;;;;;;4.55;1.55;;;4.90;99.90;;;;;;5026164;28;20402;-75
2022/02/19 01:14:32;;;;;;;7.95;1.98;;;4.90;99.90;;;;;;5025955;28;20029;-73
2022/02/19 01:17:09;;;;;;;;;;;;;;;;;;;;;
2022/02/19 01:19:34;;;;;;;4.78;1.30;;;4.90;99.90;;;;;;5025858;28;20109;-74
2022/02/19 01:22:00;;;;;;;1.52;0.57;;;4.90;99.90;;;;;;5025773;28;20018;-75
2022/02/19 01:24:26;;;;;;;7.20;1.55;;;4.80;99.90;;;;;;5030312;28;20064;-73
2022/02/19 01:26:55;;;;;;;6.50;0.95;;;4.70;99.90;;;;;;5044285;28;20125;-74
2022/02/19 01:29:20;;;;;;;3.75;1.67;;;4.50;99.90;;;;;;5042748;28;20540;-75
2022/02/19 01:31:46;;;;;;;3.30;1.23;;;4.40;99.90;;;;;;5032845;28;20030;-76
2022/02/19 01:34:11;;;;;;;4.97;1.33;;;4.30;99.90;;;;;;5036303;28;20054;-73
2022/02/19 01:36:37;;;;;;;12.05;1.58;;;4.20;99.90;;;;;;5031893;28;20037;-75
2022/02/19 01:39:03;;;;;;;42.47;1.40;;;4.10;99.90;;;;;;5044409;28;20017;-74
2022/02/19 01:41:28;;;;;;;7.05;0.93;;;4.00;99.90;;;;;;5028984;28;20025;-75
2022/02/19 01:43:54;;;;;;;2.80;1.20;;;3.90;99.90;;;;;;5023580;28;20076;-71
2022/02/19 01:46:20;;;;;;;4.35;1.13;;;3.80;99.90;;;;;;5025841;28;20409;-74
2022/02/19 01:48:46;;;;;;;1.75;0.73;;;3.80;99.90;;;;;;5035355;28;20085;-72
2022/02/19 01:51:12;;;;;;;4.15;1.45;;;3.70;99.90;;;;;;5027056;28;20018;-72
2022/02/19 01:53:38;;;;;;;4.38;0.85;;;3.70;99.90;;;;;;5025124;28;20053;-73
2022/02/19 01:56:04;;;;;;;0.82;0.68;;;3.70;99.90;;;;;;5025856;28;20022;-71
2022/02/19 01:58:30;;;;;;;1.13;0.70;;;3.80;99.90;;;;;;5026153;28;20037;-72
2022/02/19 02:00:55;;;;;;;10.05;0.88;;;3.80;99.90;;;;;;5027164;28;20128;-72
2022/02/19 02:03:28;;;;;;;4.53;0.70;;;3.80;99.90;;;;;;5041314;28;20033;-74
2022/02/19 02:05:53;;;;;;;9.82;1.58;;;3.80;99.90;;;;;;5033146;28;20058;-72
2022/02/19 02:08:20;;;;;;;10.57;0.88;;;3.80;99.90;;;;;;5030983;28;20032;-71
2022/02/19 02:10:47;;;;;;;8.75;0.93;;;3.80;99.90;;;;;;5042186;28;20084;-73
2022/02/19 02:13:13;;;;;;;2.03;0.57;;;3.80;99.90;;;;;;5044829;28;20068;-73
2022/02/19 02:15:43;;;;;;;1.77;0.45;;;3.80;99.90;;;;;;5041435;28;20037;-75
2022/02/19 02:18:09;;;;;;;3.40;1.00;;;3.80;99.90;;;;;;5043337;28;20461;-71
2022/02/19 02:20:35;;;;;;;2.22;0.90;;;3.80;99.90;;;;;;5043048;28;20025;-74
2022/02/19 02:23:00;;;;;;;0.38;0.28;;;3.90;99.90;;;;;;5029023;28;20329;-72
2022/02/19 02:25:29;;;;;;;2.67;0.35;;;3.90;99.90;;;;;;5032208;28;20073;-76
2022/02/19 02:27:56;;;;;;;9.05;1.33;;;3.80;99.90;;;;;;5034159;28;20025;-72
2022/02/19 02:30:22;;;;;;;4.05;1.15;;;3.90;99.90;;;;;;5038355;28;20028;-72
2022/02/19 02:32:49;;;;;;;5.53;0.65;;;3.90;99.90;;;;;;5025452;28;20022;-73
2022/02/19 02:35:15;;;;;;;11.68;1.75;;;3.90;99.90;;;;;;5025180;28;20113;-73
2022/02/19 02:37:59;;;;;;;2.60;1.30;;;3.90;99.90;;;;;;5024413;28;20032;-73
2022/02/19 02:40:24;;;;;;;0.65;0.40;;;3.90;99.90;;;;;;5037714;28;20110;-73
2022/02/19 02:42:50;;;;;;;3.92;0.63;;;3.90;99.90;;;;;;5044856;28;20030;-74
2022/02/19 02:45:15;;;;;;;2.85;0.77;;;3.90;99.90;;;;;;5030844;28;20049;-75
2022/02/19 02:47:43;;;;;;;8.38;0.93;;;3.90;99.90;;;;;;5024514;28;20046;-73
2022/02/19 02:50:10;;;;;;;1.27;0.25;;;3.90;99.90;;;;;;5024356;28;20026;-75
2022/02/19 02:52:37;;;;;;;2.38;0.65;;;3.90;99.90;;;;;;5037097;28;20030;-74
2022/02/19 02:55:05;;;;;;;8.27;1.58;;;3.90;99.90;;;;;;5044959;28;20148;-73
2022/02/19 02:57:31;;;;;;;7.97;1.10;;;3.90;99.90;;;;;;5031859;28;20030;-75
2022/02/19 02:59:57;;;;;;;4.63;1.42;;;4.00;99.90;;;;;;5024291;28;20026;-76
2022/02/19 03:02:23;;;;;;;0.88;0.82;;;3.90;99.90;;;;;;5029529;28;20054;-76
2022/02/19 03:04:49;;;;;;;7.32;0.73;;;4.00;99.90;;;;;;5035373;28;20030;-76
2022/02/19 03:07:15;;;;;;;4.38;1.33;;;4.00;99.90;;;;;;5044317;28;20116;-76
2022/02/19 03:09:40;;;;;;;6.72;1.33;;;4.00;99.90;;;;;;5043304;28;20052;-71
2022/02/19 03:12:11;;;;;;;2.13;1.10;;;4.00;99.90;;;;;;5035432;28;20067;-72
2022/02/19 03:14:37;;;;;;;1.05;0.65;;;4.10;99.90;;;;;;5023750;28;20101;-75
2022/02/19 03:17:03;;;;;;;2.90;0.90;;;4.10;99.90;;;;;;5039516;28;20026;-74
2022/02/19 03:19:36;;;;;;;3.80;0.55;;;4.10;99.90;;;;;;5043805;28;20022;-76
2022/02/19 03:22:02;;;;;;;3.00;0.98;;;4.20;99.90;;;;;;5043725;28;20554;-75
2022/02/19 03:24:28;;;;;;;1.88;0.75;;;4.20;99.90;;;;;;5044169;28;20045;-73
2022/02/19 03:26:53;;;;;;;4.57;1.17;;;4.20;99.90;;;;;;5044067;28;20112;-73
2022/02/19 03:29:19;;;;;;;5.00;0.80;;;4.10;99.90;;;;;;5044054;28;20038;-71
2022/02/19 03:31:52;;;;;;;0.25;0.25;;;4.10;99.90;;;;;;5043880;28;20028;-75
2022/02/19 03:34:18;;;;;;;4.00;1.05;;;4.10;99.90;;;;;;5043467;28;20022;-73
2022/02/19 03:36:44;;;;;;;0.88;0.55;;;4.10;99.90;;;;;;5042991;28;20398;-74
2022/02/19 03:39:09;;;;;;;5.53;0.60;;;4.10;99.90;;;;;;5032099;28;20041;-70
2022/02/19 03:41:35;;;;;;;11.00;1.27;;;4.10;99.90;;;;;;5023187;28;20022;-73
2022/02/19 03:44:04;;;;;;;2.58;0.60;;;4.20;99.90;;;;;;5024131;28;20046;-76
2022/02/19 03:46:31;;;;;;;5.30;0.70;;;4.20;99.90;;;;;;5024066;28;20418;-72
2022/02/19 03:48:57;;;;;;;2.58;0.50;;;4.20;99.90;;;;;;5023466;28;20030;-74
2022/02/19 03:51:23;;;;;;;1.17;0.40;;;4.20;99.90;;;;;;5023786;28;20116;-74
2022/02/19 03:53:48;;;;;;;9.70;0.85;;;4.20;99.90;;;;;;5024189;28;20026;-70
2022/02/19 03:56:14;;;;;;;1.70;0.45;;;4.20;99.90;;;;;;5023935;28;20597;-72
2022/02/19 03:58:41;;;;;;;1.20;0.55;;;4.30;99.90;;;;;;5024352;28;20053;-70
2022/02/19 04:01:06;;;;;;;4.97;0.50;;;4.20;99.90;;;;;;5031949;28;20036;-71
2022/02/19 04:03:32;;;;;;;0.82;0.60;;;4.30;99.90;;;;;;5027619;28;20034;-74
2022/02/19 04:05:58;;;;;;;0.82;0.60;;;4.20;99.90;;;;;;5027378;28;20385;-75
2022/02/19 04:08:25;;;;;;;2.65;1.30;;;4.20;99.90;;;;;;5025784;28;20029;-74
2022/02/19 04:10:51;;;;;;;1.42;0.47;;;4.10;99.90;;;;;;5045362;28;20056;-76
2022/02/19 04:13:18;;;;;;;1.95;0.70;;;4.00;99.90;;;;;;5047364;28;20029;-74
2022/02/19 04:15:44;;;;;;;3.30;0.10;;;3.90;99.90;;;;;;5045376;28;20114;-73
2022/02/19 04:18:10;;;;;;;0.70;0.30;;;3.60;99.90;;;;;;5045035;28;20064;-75
2022/02/19 04:20:44;;;;;;;1.92;0.52;;;3.20;99.90;;;;;;5037687;28;20478;-80
2022/02/19 04:23:10;;;;;;;0.10;0.10;;;3.00;99.90;;;;;;5026785;28;20029;-73
2022/02/19 04:25:35;;;;;;;0.52;0.20;;;2.90;99.90;;;;;;5029447;28;20058;-73
2022/02/19 04:28:04;;;;;;;1.52;0.25;;;2.80;99.90;;;;;;5032786;28;20900;-76
2022/02/19 04:30:30;;;;;;;1.20;0.75;;;2.80;99.90;;;;;;5029351;28;20034;-73
2022/02/19 04:32:58;;;;;;;6.80;0.32;;;2.70;99.90;;;;;;5034912;28;20117;-73
2022/02/19 04:35:24;;;;;;;0.93;0.52;;;2.70;99.90;;;;;;5047033;28;20084;-72
2022/02/19 04:37:50;;;;;;;8.15;1.33;;;2.70;99.90;;;;;;5045965;28;20025;-74
2022/02/19 04:40:16;;;;;;;0.65;0.20;;;2.70;99.90;;;;;;5037706;28;20101;-73
2022/02/19 04:42:43;;;;;;;2.22;0.20;;;2.80;99.90;;;;;;5026846;28;20033;-73
2022/02/19 04:45:10;;;;;;;0.28;0.20;;;2.80;99.90;;;;;;5031355;28;20466;-72
2022/02/19 04:47:37;;;;;;;1.17;0.22;;;2.80;99.90;;;;;;5034617;28;20048;-74
2022/02/19 04:50:08;;;;;;;3.67;0.77;;;2.90;99.90;;;;;;5038965;28;20073;-76
2022/02/19 04:52:33;;;;;;;6.50;0.25;;;2.90;99.90;;;;;;5039413;28;20046;-74
2022/02/19 04:55:05;;;;;;;1.63;0.93;;;2.90;99.90;;;;;;5041976;28;20506;-72
2022/02/19 04:57:31;;;;;;;0.10;0.10;;;2.90;99.90;;;;;;5033290;28;20036;-73
2022/02/19 04:59:58;;;;;;;0.50;0.20;;;3.10;99.90;;;;;;5026639;28;20022;-72
2022/02/19 05:02:23;;;;;;;0.20;0.10;;;3.00;99.90;;;;;;5026265;28;20041;-73
2022/02/19 05:04:58;;;;;;;0.75;0.17;;;3.10;99.90;;;;;;5026321;28;20026;-74
2022/02/19 05:07:24;;;;;;;0.20;0.13;;;3.10;99.90;;;;;;5026332;28;20038;-72
2022/02/19 05:09:50;;;;;;;0.90;0.10;;;3.10;99.90;;;;;;5039215;28;20025;-75
2022/02/19 05:12:16;;;;;;;0.00;0.00;;;3.20;99.90;;;;;;5031894;28;20022;-75
2022/02/19 05:14:42;;;;;;;0.00;0.00;;;3.20;99.90;;;;;;5045321;28;20056;-74
2022/02/19 05:17:07;;;;;;;6.50;0.93;;;3.20;99.90;;;;;;5044513;28;20033;-72
2022/02/19 05:19:33;;;;;;;0.00;0.00;;;3.30;99.90;;;;;;5036832;28;20032;-73
2022/02/19 05:21:59;;;;;;;1.65;0.20;;;3.30;99.90;;;;;;5033469;28;20112;-72
2022/02/19 05:24:25;;;;;;;1.33;0.20;;;3.40;99.90;;;;;;5025332;28;20050;-69
2022/02/19 05:26:50;;;;;;;0.10;0.10;;;3.40;99.90;;;;;;5032861;28;20100;-71
2022/02/19 05:29:16;;;;;;;0.08;0.00;;;3.40;99.90;;;;;;5045611;28;20022;-73
2022/02/19 05:31:43;;;;;;;0.55;0.55;;;3.20;99.90;;;;;;5027924;28;20033;-72
2022/02/19 05:34:08;;;;;;;0.60;0.13;;;3.10;99.90;;;;;;5025607;28;20026;-73
2022/02/19 05:36:34;;;;;;;0.10;0.10;;;3.00;99.90;;;;;;5025428;28;20084;-70
2022/02/19 05:39:02;;;;;;;0.55;0.20;;;3.00;99.90;;;;;;5042218;28;20029;-73
2022/02/19 05:41:29;;;;;;;0.75;0.40;;;2.90;99.90;;;;;;5042686;28;20036;-71
2022/02/19 05:43:54;;;;;;;0.00;0.00;;;2.90;99.90;;;;;;5028310;28;20120;-71
2022/02/19 05:46:20;;;;;;;1.20;0.45;;;3.00;99.90;;;;;;5025546;28;20132;-74
2022/02/19 05:48:45;;;;;;;2.28;0.63;;;3.00;99.90;;;;;;5025365;28;20026;-72
2022/02/19 05:51:11;;;;;;;1.08;0.13;;;3.00;99.90;;;;;;5024927;28;20026;-73
2022/02/19 05:53:37;;;;;;;0.77;0.20;;;3.00;99.90;;;;;;5044599;28;20021;-71
2022/02/19 05:56:03;;;;;;;8.82;0.50;;;3.00;99.90;;;;;;5043575;28;20036;-74
2022/02/19 05:58:29;;;;;;;0.05;0.03;;;3.00;99.90;;;;;;5045087;28;20095;-74
2022/02/19 06:00:55;;;;;;;3.25;0.15;;;3.00;99.90;;;;;;5043389;28;20033;-75
2022/02/19 06:03:21;;;;;;;0.35;0.20;;;3.00;99.90;;;;;;5043900;28;20033;-73
2022/02/19 06:05:54;;;;;;;6.90;1.42;;;2.80;99.90;;;;;;5043898;28;20030;-75
2022/02/19 06:08:19;;;;;;;1.65;0.63;;;2.90;99.90;;;;;;5043456;28;20033;-72
2022/02/19 06:10:45;;;;;;;1.15;0.20;;;2.90;99.90;;;;;;5045186;28;20033;-74
2022/02/19 06:13:11;;;;;;;0.03;0.03;;;2.80;99.90;;;;;;5045284;28;20538;-74
2022/02/19 06:15:40;;;;;;;6.55;0.45;;;2.80;99.90;;;;;;5040804;28;20037;-72
2022/02/19 06:18:06;;;;;;;0.45;0.10;;;2.90;99.90;;;;;;5023505;28;20117;-72
2022/02/19 06:20:31;;;;;;;0.68;0.20;;;2.80;99.90;;;;;;5031864;28;20394;-73
2022/02/19 06:22:58;;;;;;;2.28;0.28;;;2.90;99.90;;;;;;5024722;28;20030;-72
2022/02/19 06:25:23;;;;;;;0.22;0.10;;;2.90;99.90;;;;;;5021958;28;20064;-73
2022/02/19 06:27:50;;;;;;;4.18;0.98;;;2.90;99.90;;;;;;5024923;28;20086;-74
2022/02/19 06:30:16;;;;;;;0.80;0.17;;;2.90;99.90;;;;;;5037814;28;20084;-73
2022/02/19 06:32:43;;;;;;;0.10;0.10;;;2.90;99.90;;;;;;5044624;28;20021;-73
2022/02/19 06:35:09;;;;;;;0.05;0.05;;;2.90;99.90;;;;;;5045134;28;20048;-73
2022/02/19 06:37:47;;;;;;;0.60;0.30;;;2.90;99.90;;;;;;5036094;28;20041;-73
2022/02/19 06:40:15;;;;;;;0.13;0.13;;;2.90;99.90;;;;;;5032824;28;20029;-73
2022/02/19 06:42:42;;;;;;;0.80;0.38;;;3.00;99.90;;;;;;5034506;28;20037;-72
2022/02/19 06:45:09;;;;;;;0.00;0.00;;;3.00;99.90;;;;;;5035732;28;20042;-74
2022/02/19 06:47:47;;;;;;;3.65;0.47;;;3.00;99.90;;;;;;5034589;28;20040;-72
2022/02/19 06:50:13;;;;;;;1.08;0.10;;;2.90;99.90;;;;;;5036106;28;20434;-75
2022/02/19 06:52:39;;;;;;;0.52;0.30;;;2.90;99.90;;;;;;5024266;28;20081;-74
2022/02/19 06:55:05;;;;;;;1.60;0.20;;;2.90;99.90;;;;;;5023124;28;20033;-74
2022/02/19 06:57:30;;;;;;;1.52;0.60;;;2.90;99.90;;;;;;5024624;28;20076;-76
2022/02/19 06:59:56;;;;;;;0.65;0.65;;;2.90;99.90;;;;;;5034666;28;20026;-74
2022/02/19 07:02:22;;;;;;;1.63;0.40;;;2.90;99.90;;;;;;5033055;28;20026;-74
2022/02/19 07:04:47;;;;;;;0.75;0.50;;;2.90;99.90;;;;;;5022993;28;20068;-76
2022/02/19 07:07:13;;;;;;;0.57;0.20;;;2.90;99.90;;;;;;5023936;28;20065;-74
2022/02/19 07:09:39;;;;;;;0.93;0.55;;;2.90;99.90;;;;;;5024810;28;20038;-74
2022/02/19 07:12:05;;;;;;;0.80;0.50;;;2.90;99.90;;;;;;5025272;28;20037;-74
2022/02/19 07:14:31;;;;;;;0.20;0.20;;;2.90;99.90;;;;;;5035297;28;20048;-72
2022/02/19 07:17:04;;;;;;;0.10;0.10;;;3.00;99.90;;;;;;5028010;28;20034;-73
2022/02/19 07:19:33;;;;;;;0.40;0.35;;;2.90;99.90;;;;;;5029116;28;20022;-71
2022/02/19 07:21:59;;;;;;;0.00;0.00;;;2.70;99.90;;;;;;5029785;28;20034;-73
2022/02/19 07:24:25;;;;;;;0.28;0.10;;;2.60;99.90;;;;;;5022836;28;20157;-71
2022/02/19 07:26:50;;;;;;;0.10;0.10;;;2.50;99.90;;;;;;5031584;28;20038;-71
2022/02/19 07:29:16;;;;;;;0.98;0.47;;;2.40;99.90;;;;;;5041615;28;20026;-70
2022/02/19 07:31:43;;;;;;;0.63;0.25;;;2.40;99.90;;;;;;5026494;28;20026;-72
2022/02/19 07:34:08;;;;;;;0.40;0.08;;;2.40;99.90;;;;;;5024098;28;20035;-70
2022/02/19 07:36:34;;;;;;;0.45;0.20;;;2.40;99.90;;;;;;5025507;28;20030;-73
2022/02/19 07:39:00;;;;;;;8.20;0.93;;;2.40;99.90;;;;;;5029050;28;20097;-72
2022/02/19 07:41:25;;;;;;;0.88;0.30;;;2.50;99.90;;;;;;5027759;28;20026;-70
2022/02/19 07:43:57;;;;;;;1.10;0.40;;;2.50;99.90;;;;;;5029319;28;20053;-72
2022/02/19 07:46:24;;;;;;;11.80;0.70;;;2.60;99.90;;;;;;5047061;28;20033;-73
2022/02/19 07:48:49;;;;;;;0.93;0.50;;;2.60;99.90;;;;;;5032917;28;20041;-72
2022/02/19 07:59:27;;;;;;;6.05;0.75;;;2.50;99.90;;;;;;5029582;28;20093;-73
2022/02/19 08:01:55;;;;;;;0.75;0.40;;;2.50;99.90;;;;;;5026559;28;20478;-73
2022/02/19 08:04:20;;;;;;;0.85;0.60;;;2.50;99.90;;;;;;5027594;28;20018;-74
2022/02/19 08:06:47;;;;;;;1.75;0.95;;;2.60;99.90;;;;;;5027648;28;20097;-72
2022/02/19 08:09:13;;;;;;;2.58;1.27;;;2.60;99.90;;;;;;5034631;28;20033;-75
2022/02/19 08:11:40;;;;;;;1.92;1.27;;;2.60;99.90;;;;;;5027707;28;20097;-72
2022/02/19 08:14:06;;;;;;;1.38;1.00;;;2.70;99.90;;;;;;5039773;28;20059;-73
2022/02/19 08:16:32;;;;;;;6.35;1.00;;;2.80;99.90;;;;;;5046696;28;20029;-74
2022/02/19 08:19:10;;;;;;;1.92;0.75;;;2.80;99.90;;;;;;5046916;28;20057;-74
2022/02/19 08:21:35;;;;;;;6.00;1.50;;;2.90;99.90;;;;;;5046267;28;20022;-71
2022/02/19 08:24:01;;;;;;;11.07;1.42;;;2.90;99.90;;;;;;5047142;28;20026;-73
2022/02/19 08:26:27;;;;;;;7.05;1.13;;;3.00;99.90;;;;;;5041478;28;20049;-74
2022/02/19 08:28:53;;;;;;;4.43;1.92;;;3.10;99.90;;;;;;5038693;28;20030;-74
2022/02/19 08:31:20;;;;;;;3.55;1.35;;;3.20;99.90;;;;;;5025510;28;20037;-74
2022/02/19 08:33:46;;;;;;;4.65;1.30;;;3.30;99.90;;;;;;5028148;28;20093;-74
2022/02/19 08:36:13;;;;;;;7.00;1.60;;;3.30;99.90;;;;;;5037689;28;20053;-73
2022/02/19 08:38:39;;;;;;;3.40;0.98;;;3.30;99.90;;;;;;5036473;28;20116;-72
2022/02/19 08:41:05;;;;;;;1.58;0.43;;;3.10;99.90;;;;;;5026501;28;20604;-72
2022/02/19 08:43:31;;;;;;;3.42;1.00;;;3.00;99.90;;;;;;5026495;28;20108;-73
2022/02/19 08:45:57;;;;;;;2.20;1.15;;;3.00;99.90;;;;;;5032175;28;20026;-71
2022/02/19 08:48:22;;;;;;;7.28;1.80;;;3.10;99.90;;;;;;5044920;28;20036;-73
2022/02/19 08:50:49;;;;;;;8.45;2.05;;;3.20;99.90;;;;;;5046592;28;20033;-75
2022/02/19 08:53:16;;;;;;;17.40;2.03;;;3.30;99.90;;;;;;5042692;28;20026;-74
2022/02/19 08:55:42;;;;;;;5.90;1.98;;;3.50;99.90;;;;;;5042279;28;20097;-71
2022/02/19 08:58:09;;;;;;;16.50;2.00;;;3.50;99.90;;;;;;5029716;28;20034;-73
2022/02/19 09:00:35;;;;;;;12.00;2.22;;;3.60;99.90;;;;;;5026438;28;20034;-72
2022/02/19 09:03:01;;;;;;;6.22;1.75;;;3.60;99.90;;;;;;5037553;28;20026;-73
2022/02/19 09:05:27;;;;;;;9.80;1.98;;;3.50;99.90;;;;;;5028260;28;20058;-70
2022/02/19 09:07:53;;;;;;;7.93;2.00;;;3.50;99.90;;;;;;5029803;28;20398;-72
2022/02/19 09:10:18;;;;;;;1.65;1.02;;;3.40;99.90;;;;;;5024621;28;20112;-74
2022/02/19 09:12:50;;;;;;;8.80;1.83;;;3.40;99.90;;;;;;5032214;28;20468;-74
2022/02/19 09:15:31;;;;;;;4.70;2.15;;;3.40;99.90;;;;;;5029786;28;20033;-76
2022/02/19 09:17:56;;;;;;;11.20;2.15;;;3.50;99.90;;;;;;5022780;28;20053;-76
2022/02/19 09:20:22;;;;;;;9.18;1.42;;;3.70;99.90;;;;;;5036033;28;20048;-76
2022/02/19 09:22:49;;;;;;;8.13;1.65;;;3.80;99.90;;;;;;5038563;28;20026;-73
2022/02/19 09:25:17;;;;;;;6.90;1.23;;;3.90;99.90;;;;;;5044112;28;20555;-75
2022/02/19 09:27:44;;;;;;;13.07;1.83;;;4.00;99.90;;;;;;5037680;28;20067;-73
2022/02/19 09:30:13;;;;;;;5.28;1.30;;;4.00;99.90;;;;;;5046269;28;20022;-74
2022/02/19 09:32:39;;;;;;;4.95;1.65;;;4.10;99.90;;;;;;5039477;28;20029;-73
2022/02/19 09:35:26;;;;;;;6.43;1.85;;;4.30;99.90;;;;;;5039874;28;20048;-75
2022/02/19 09:37:54;;;;;;;9.25;1.58;;;4.50;99.90;;;;;;5024269;28;20041;-76
2022/02/19 09:40:20;;;;;;;5.78;1.25;;;4.70;99.90;;;;;;5027652;28;20069;-75
2022/02/19 09:42:52;;;;;;;3.20;1.05;;;4.80;99.90;;;;;;5025735;28;20030;-71
2022/02/19 09:45:18;;;;;;;5.93;1.52;;;5.00;99.90;;;;;;5025381;28;20029;-73
2022/02/19 09:47:44;;;;;;;8.65;1.40;;;5.00;99.90;;;;;;5025447;28;20160;-73
2022/02/19 09:50:12;;;;;;;10.98;2.65;;;5.00;99.90;;;;;;5027955;28;20116;-73
2022/02/19 09:52:38;;;;;;;6.25;2.03;;;5.20;99.90;;;;;;5036128;28;20034;-72
2022/02/19 09:55:05;;;;;;;19.33;1.92;;;5.20;99.90;;;;;;5039933;28;20048;-72
2022/02/19 09:57:31;;;;;;;4.30;1.20;;;5.30;99.90;;;;;;5037166;28;20030;-72
2022/02/19 09:59:57;;;;;;;1.70;0.80;;;5.50;99.90;;;;;;5027657;28;20033;-74
2022/02/19 10:02:32;;;;;;;12.63;1.55;;;5.70;99.90;;;;;;5025682;28;20532;-75
2022/02/19 10:05:14;;;;;;;4.68;1.40;;;5.70;99.90;;;;;;5028993;28;20097;-72
2022/02/19 10:07:41;;;;;;;6.57;1.08;;;5.80;99.90;;;;;;5025736;28;20052;-73
2022/02/19 10:10:07;;;;;;;8.02;2.17;;;5.70;99.90;;;;;;5027842;28;20029;-71
2022/02/19 10:12:47;;;;;;;6.32;1.38;;;5.70;99.90;;;;;;5027655;28;20065;-72
2022/02/19 10:15:20;;;;;;;5.38;1.83;;;5.70;99.90;;;;;;5025223;28;20038;-75
2022/02/19 10:17:46;;;;;;;6.97;1.77;;;5.80;99.90;;;;;;5031155;28;20030;-71
2022/02/19 10:20:14;;;;;;;6.28;1.55;;;5.90;99.90;;;;;;5036845;28;20387;-71
2022/02/19 10:22:43;;;;;;;2.10;0.93;;;5.90;99.90;;;;;;5029689;28;20580;-72
2022/02/19 10:25:24;;;;;;;10.10;2.00;;;5.70;99.90;;;;;;5043407;28;20127;-72
2022/02/19 10:27:54;;;;;;;11.85;2.15;;;5.60;99.90;;;;;;5037591;28;20044;-72
2022/02/19 10:30:23;;;;;;;5.22;1.38;;;5.40;99.90;;;;;;5028528;28;20145;-71
2022/02/19 10:32:50;;;;;;;2.95;1.15;;;5.40;99.90;;;;;;5024977;28;20109;-71
2022/02/19 10:35:19;;;;;;;2.20;1.02;;;5.40;99.90;;;;;;5025129;28;20026;-70
2022/02/19 10:37:51;;;;;;;13.93;1.42;;;5.50;99.90;;;;;;5025376;28;20022;-72
2022/02/19 10:40:34;;;;;;;6.73;0.93;;;5.50;99.90;;;;;;5023835;28;20021;-73
2022/02/19 10:43:10;;;;;;;2.28;0.77;;;5.50;99.90;;;;;;5028873;28;20266;-71
2022/02/19 10:45:37;;;;;;;13.93;1.73;;;5.60;99.90;;;;;;5044393;28;20025;-73
2022/02/19 10:48:23;;;;;;;3.10;1.10;;;5.70;99.90;;;;;;5030408;28;20065;-72
2022/02/19 10:50:50;;;;;;;10.43;0.98;;;6.00;99.90;;;;;;5034493;28;20030;-75
2022/02/19 10:53:27;;;;;;;4.60;0.95;;;6.30;99.90;;;;;;5024635;28;20034;-76
2022/02/19 10:55:54;;;;;;;5.65;1.42;;;6.70;99.90;;;;;;5023961;28;20074;-71
2022/02/19 10:58:21;;;;;;;5.60;1.00;;;7.10;99.90;;;;;;5024507;28;20033;-73
2022/02/19 11:00:47;;;;;;;2.20;1.48;;;7.50;99.90;;;;;;5024417;28;20027;-72
2022/02/19 11:03:13;;;;;;;9.90;1.83;;;7.80;99.90;;;;;;5024966;28;20018;-74
2022/02/19 11:05:40;;;;;;;15.40;1.88;;;8.10;99.90;;;;;;5024476;28;20524;-72
2022/02/19 11:08:06;;;;;;;1.88;0.70;;;8.40;99.90;;;;;;5024107;28;20037;-72
2022/02/19 11:10:33;;;;;;;3.75;0.65;;;8.40;99.90;;;;;;5028547;28;20030;-73
2022/02/19 11:13:00;;;;;;;3.97;0.88;;;8.10;99.90;;;;;;5042151;28;20032;-71
2022/02/19 11:15:27;;;;;;;3.22;1.40;;;7.90;99.90;;;;;;5029948;28;20030;-72
2022/02/19 11:17:57;;;;;;;1.85;0.70;;;8.10;99.90;;;;;;5039868;28;20022;-70
2022/02/19 11:20:24;;;;;;;7.95;0.73;;;8.20;99.90;;;;;;5028592;28;20026;-69
2022/02/19 11:22:53;;;;;;;12.80;1.25;;;8.40;99.90;;;;;;5029068;28;20112;-69
2022/02/19 11:25:21;;;;;;;3.33;1.15;;;8.50;99.90;;;;;;5036990;28;20107;-71
2022/02/19 11:28:23;;;;;;;6.85;1.15;;;8.60;99.90;;;;;;5038970;28;20045;-72
2022/02/19 11:30:55;;;;;;;7.72;1.88;;;8.10;99.90;;;;;;5026543;28;20045;-72
2022/02/19 11:33:25;;;;;;;5.75;1.05;;;7.70;99.90;;;;;;5047845;28;20026;-69
2022/02/19 11:35:51;;;;;;;11.32;1.58;;;7.20;99.90;;;;;;5034592;28;20030;-69
2022/02/19 11:38:31;;;;;;;9.18;1.52;;;6.80;99.90;;;;;;5027489;28;20045;-70
2022/02/19 11:41:00;;;;;;;4.20;1.00;;;6.60;99.90;;;;;;5028219;28;20149;-72
2022/02/19 11:43:38;;;;;;;2.22;0.63;;;6.40;99.90;;;;;;5035972;28;20025;-72
2022/02/19 11:46:17;;;;;;;10.13;1.40;;;6.30;99.90;;;;;;5037248;28;20030;-73
2022/02/19 11:48:46;;;;;;;10.82;1.00;;;6.10;99.90;;;;;;5040917;28;20036;-72
2022/02/19 11:51:43;;;;;;;1.83;0.63;;;5.90;99.90;;;;;;5034208;28;20081;-72
2022/02/19 11:54:12;;;;;;;1.70;0.57;;;5.70;99.90;;;;;;5036723;28;20021;-72
2022/02/19 11:56:47;;;;;;;2.67;0.73;;;5.90;99.90;;;;;;5041389;28;20034;-72
2022/02/19 11:59:16;;;;;;;1.90;0.30;;;6.60;99.90;;;;;;5050371;28;20028;-72
2022/02/19 12:01:45;;;;;;;0.55;0.20;;;7.30;99.90;;;;;;5034943;28;20068;-73
2022/02/19 12:04:19;;;;;;;0.40;0.38;;;8.00;99.90;;;;;;5036384;28;20029;-72
2022/02/19 12:07:08;;;;;;;5.90;0.60;;;8.20;99.90;;;;;;5027403;28;20064;-74
2022/02/19 12:10:01;;;;;;;0.77;0.77;;;8.00;99.90;;;;;;5028304;28;20034;-71
2022/02/19 12:12:27;;;;;;;6.07;0.80;;;7.70;99.90;;;;;;5025493;28;20033;-71
2022/02/19 12:14:57;;;;;;;5.15;1.38;;;7.30;99.90;;;;;;5026879;28;20030;-72
2022/02/19 12:17:46;;;;;;;2.95;1.05;;;7.10;99.90;;;;;;5034289;28;20021;-76
2022/02/19 12:20:27;;;;;;;11.18;3.47;;;7.00;99.90;;;;;;5031343;28;20041;-71
2022/02/19 12:23:05;;;;;;;10.00;3.78;;;7.00;99.90;;;;;;5023941;28;20022;-72
2022/02/19 12:25:59;;;;;;;8.65;2.88;;;7.10;99.90;;;;;;5026622;28;20046;-73
2022/02/19 12:28:25;;;;;;;6.13;1.63;;;7.50;99.90;;;;;;5032084;28;20066;-72
2022/02/19 12:31:11;;;;;;;4.97;1.63;;;7.60;99.90;;;;;;5027456;28;20087;-72
2022/02/19 12:33:37;;;;;;;4.30;0.60;;;7.60;99.90;;;;;;5030856;28;20057;-70
2022/02/19 12:36:08;;;;;;;4.00;0.50;;;7.50;99.90;;;;;;5025804;28;20030;-72
2022/02/19 12:38:34;;;;;;;0.50;0.40;;;7.40;99.90;;;;;;5026687;28;20030;-75
2022/02/19 12:41:01;;;;;;;9.35;1.85;;;7.40;99.90;;;;;;5026765;28;20072;-73
2022/02/19 12:43:26;;;;;;;5.00;1.00;;;7.40;99.90;;;;;;5033764;28;20092;-71
2022/02/19 12:45:52;;;;;;;1.52;0.70;;;7.20;99.90;;;;;;5028135;28;20050;-73
2022/02/19 12:48:18;;;;;;;9.55;1.13;;;7.10;99.90;;;;;;5042844;28;20029;-71
2022/02/19 12:50:58;;;;;;;3.80;1.48;;;7.10;99.90;;;;;;5046449;28;20084;-73
2022/02/19 12:53:26;;;;;;;5.85;1.10;;;7.20;99.90;;;;;;5045688;28;20057;-73
2022/02/19 12:55:56;;;;;;;6.97;1.23;;;7.30;99.90;;;;;;5046526;28;20036;-71
2022/02/19 12:58:24;;;;;;;6.72;1.40;;;7.40;99.90;;;;;;5044666;28;20029;-72
2022/02/19 13:00:58;;;;;;;6.00;0.52;;;7.80;99.90;;;;;;5044984;28;20033;-72
2022/02/19 13:03:24;;;;;;;6.30;0.85;;;8.10;99.90;;;;;;5046337;28;20037;-70
2022/02/19 13:05:54;;;;;;;4.78;1.35;;;8.40;99.90;;;;;;5041278;28;20022;-72
2022/02/19 13:08:21;;;;;;;3.30;0.75;;;8.20;99.90;;;;;;5026045;28;20050;-72
2022/02/19 13:10:49;;;;;;;4.95;2.45;;;7.70;99.90;;;;;;5026930;28;20026;-73